Derby, Indiana
Current Conditions -  °F | °C
As of 2:35 PM on Friday 28 Nov 2014 (Local Time) from KHNB Reporting Station
Clear Clear  
Wind Chill: 33°   Ceiling: Unl
Heat Index: 41°   Visibility: 10mi
Dew Point: 27°   Wind: 14mph
Humidity: 57%   Direction: 180°S
Pressure: 30.17"   Gusts: NA
Location:  38.03°N, 86.53°W
Report Text: KHNB 282035Z AUTO 18012KT 10SM CLR 05/M03 A3017 RMK AO1
Loading
Personal Weather Stations






























Interactive Weather Map New forecast layout! Learn more

10-Day Weather Forecast

Advertisements
Track Severe Weather on mobile